sensor_id;sensor_type;location;lat;lon;timestamp;P1;durP1;ratioP1;P2;durP2;ratioP2
39918;SDS011;25589;51.552;13.424;2024-02-16T00:00:22;17.10;;;11.80;;
39918;SDS011;25589;51.552;13.424;2024-02-16T00:02:49;17.08;;;11.98;;
39918;SDS011;25589;51.552;13.424;2024-02-16T00:05:14;17.58;;;11.43;;
39918;SDS011;25589;51.552;13.424;2024-02-16T00:07:40;17.13;;;11.68;;
39918;SDS011;25589;51.552;13.424;2024-02-16T00:10:06;17.60;;;12.45;;
39918;SDS011;25589;51.552;13.424;2024-02-16T00:12:33;19.23;;;11.82;;
39918;SDS011;25589;51.552;13.424;2024-02-16T00:14:59;21.20;;;12.30;;
39918;SDS011;25589;51.552;13.424;2024-02-16T00:17:25;18.23;;;11.43;;
39918;SDS011;25589;51.552;13.424;2024-02-16T00:19:55;17.63;;;11.48;;
39918;SDS011;25589;51.552;13.424;2024-02-16T00:22:21;15.48;;;10.98;;
39918;SDS011;25589;51.552;13.424;2024-02-16T00:24:47;14.20;;;11.25;;
39918;SDS011;25589;51.552;13.424;2024-02-16T00:27:13;16.75;;;11.77;;
39918;SDS011;25589;51.552;13.424;2024-02-16T00:29:39;17.23;;;12.18;;
39918;SDS011;25589;51.552;13.424;2024-02-16T00:32:05;16.70;;;11.63;;
39918;SDS011;25589;51.552;13.424;2024-02-16T00:34:32;17.85;;;12.00;;
39918;SDS011;25589;51.552;13.424;2024-02-16T00:36:58;22.38;;;13.13;;
39918;SDS011;25589;51.552;13.424;2024-02-16T00:39:23;19.38;;;12.65;;
39918;SDS011;25589;51.552;13.424;2024-02-16T00:41:50;15.27;;;11.35;;
39918;SDS011;25589;51.552;13.424;2024-02-16T00:44:15;16.38;;;11.75;;
39918;SDS011;25589;51.552;13.424;2024-02-16T00:46:41;16.80;;;11.50;;
39918;SDS011;25589;51.552;13.424;2024-02-16T00:49:06;19.35;;;12.30;;
39918;SDS011;25589;51.552;13.424;2024-02-16T00:51:32;17.83;;;12.23;;
39918;SDS011;25589;51.552;13.424;2024-02-16T00:53:57;19.50;;;11.85;;
39918;SDS011;25589;51.552;13.424;2024-02-16T00:56:23;24.00;;;12.43;;
39918;SDS011;25589;51.552;13.424;2024-02-16T00:58:48;16.38;;;11.35;;
39918;SDS011;25589;51.552;13.424;2024-02-16T01:01:14;15.18;;;11.13;;
39918;SDS011;25589;51.552;13.424;2024-02-16T01:03:40;18.83;;;11.90;;
39918;SDS011;25589;51.552;13.424;2024-02-16T01:06:05;16.60;;;11.85;;
39918;SDS011;25589;51.552;13.424;2024-02-16T01:08:31;16.70;;;11.80;;
39918;SDS011;25589;51.552;13.424;2024-02-16T01:10:57;18.13;;;12.10;;
39918;SDS011;25589;51.552;13.424;2024-02-16T01:13:23;18.77;;;11.82;;
39918;SDS011;25589;51.552;13.424;2024-02-16T01:15:49;16.02;;;11.18;;
39918;SDS011;25589;51.552;13.424;2024-02-16T01:18:14;14.18;;;11.15;;
39918;SDS011;25589;51.552;13.424;2024-02-16T01:20:40;16.70;;;11.45;;
39918;SDS011;25589;51.552;13.424;2024-02-16T01:23:06;17.33;;;11.52;;
39918;SDS011;25589;51.552;13.424;2024-02-16T01:25:31;16.90;;;10.85;;
39918;SDS011;25589;51.552;13.424;2024-02-16T01:27:57;18.67;;;11.68;;
39918;SDS011;25589;51.552;13.424;2024-02-16T01:30:23;15.85;;;11.07;;
39918;SDS011;25589;51.552;13.424;2024-02-16T01:32:49;16.00;;;10.32;;
39918;SDS011;25589;51.552;13.424;2024-02-16T01:35:15;14.55;;;10.43;;
39918;SDS011;25589;51.552;13.424;2024-02-16T01:37:41;16.23;;;10.95;;
39918;SDS011;25589;51.552;13.424;2024-02-16T01:40:08;15.95;;;10.77;;
39918;SDS011;25589;51.552;13.424;2024-02-16T01:42:39;15.07;;;10.55;;
39918;SDS011;25589;51.552;13.424;2024-02-16T01:45:12;15.68;;;10.65;;
39918;SDS011;25589;51.552;13.424;2024-02-16T01:47:38;15.15;;;10.38;;
39918;SDS011;25589;51.552;13.424;2024-02-16T01:50:05;18.20;;;10.52;;
39918;SDS011;25589;51.552;13.424;2024-02-16T01:52:32;17.85;;;11.35;;
39918;SDS011;25589;51.552;13.424;2024-02-16T01:55:00;20.15;;;10.70;;
39918;SDS011;25589;51.552;13.424;2024-02-16T01:57:29;15.25;;;10.35;;
39918;SDS011;25589;51.552;13.424;2024-02-16T01:59:55;17.52;;;11.18;;
39918;SDS011;25589;51.552;13.424;2024-02-16T02:02:22;15.10;;;11.15;;
39918;SDS011;25589;51.552;13.424;2024-02-16T02:04:47;17.40;;;11.27;;
39918;SDS011;25589;51.552;13.424;2024-02-16T02:07:13;15.90;;;10.15;;
39918;SDS011;25589;51.552;13.424;2024-02-16T02:09:39;16.65;;;10.73;;
39918;SDS011;25589;51.552;13.424;2024-02-16T02:12:05;17.83;;;11.48;;
39918;SDS011;25589;51.552;13.424;2024-02-16T02:14:31;13.88;;;10.35;;
39918;SDS011;25589;51.552;13.424;2024-02-16T02:16:56;15.48;;;10.50;;
39918;SDS011;25589;51.552;13.424;2024-02-16T02:19:22;14.32;;;9.95;;
39918;SDS011;25589;51.552;13.424;2024-02-16T02:21:48;13.73;;;9.32;;
39918;SDS011;25589;51.552;13.424;2024-02-16T02:24:13;16.75;;;10.88;;
39918;SDS011;25589;51.552;13.424;2024-02-16T02:26:39;13.88;;;10.60;;
39918;SDS011;25589;51.552;13.424;2024-02-16T02:29:04;16.65;;;10.82;;
39918;SDS011;25589;51.552;13.424;2024-02-16T02:31:30;13.57;;;9.35;;
39918;SDS011;25589;51.552;13.424;2024-02-16T02:33:56;14.80;;;10.27;;
39918;SDS011;25589;51.552;13.424;2024-02-16T02:36:21;14.68;;;10.63;;
39918;SDS011;25589;51.552;13.424;2024-02-16T02:38:47;16.08;;;10.15;;
39918;SDS011;25589;51.552;13.424;2024-02-16T02:41:13;15.27;;;9.93;;
39918;SDS011;25589;51.552;13.424;2024-02-16T02:43:41;14.75;;;9.90;;
39918;SDS011;25589;51.552;13.424;2024-02-16T02:46:07;15.07;;;10.25;;
39918;SDS011;25589;51.552;13.424;2024-02-16T02:48:33;17.20;;;10.27;;
39918;SDS011;25589;51.552;13.424;2024-02-16T02:50:58;13.80;;;10.32;;
39918;SDS011;25589;51.552;13.424;2024-02-16T02:53:27;14.93;;;10.05;;
39918;SDS011;25589;51.552;13.424;2024-02-16T02:55:53;16.35;;;10.18;;
39918;SDS011;25589;51.552;13.424;2024-02-16T02:58:19;18.73;;;10.60;;
39918;SDS011;25589;51.552;13.424;2024-02-16T03:00:44;16.23;;;10.82;;
39918;SDS011;25589;51.552;13.424;2024-02-16T03:03:10;17.13;;;10.63;;
39918;SDS011;25589;51.552;13.424;2024-02-16T03:05:35;13.98;;;9.68;;
39918;SDS011;25589;51.552;13.424;2024-02-16T03:08:01;14.50;;;9.95;;
39918;SDS011;25589;51.552;13.424;2024-02-16T03:10:27;13.70;;;9.88;;
39918;SDS011;25589;51.552;13.424;2024-02-16T03:12:59;16.52;;;10.15;;
39918;SDS011;25589;51.552;13.424;2024-02-16T03:15:26;15.43;;;10.00;;
39918;SDS011;25589;51.552;13.424;2024-02-16T03:17:51;13.50;;;9.70;;
39918;SDS011;25589;51.552;13.424;2024-02-16T03:20:17;15.18;;;9.43;;
39918;SDS011;25589;51.552;13.424;2024-02-16T03:22:42;12.25;;;8.93;;
39918;SDS011;25589;51.552;13.424;2024-02-16T03:25:08;15.80;;;8.93;;
39918;SDS011;25589;51.552;13.424;2024-02-16T03:27:34;14.05;;;9.00;;
39918;SDS011;25589;51.552;13.424;2024-02-16T03:30:00;14.27;;;8.55;;
39918;SDS011;25589;51.552;13.424;2024-02-16T03:32:26;12.68;;;8.60;;
39918;SDS011;25589;51.552;13.424;2024-02-16T03:34:52;13.32;;;9.65;;
39918;SDS011;25589;51.552;13.424;2024-02-16T03:37:18;15.15;;;9.68;;
39918;SDS011;25589;51.552;13.424;2024-02-16T03:39:43;14.13;;;9.70;;
39918;SDS011;25589;51.552;13.424;2024-02-16T03:42:09;13.52;;;9.70;;
39918;SDS011;25589;51.552;13.424;2024-02-16T03:44:34;14.82;;;9.10;;
39918;SDS011;25589;51.552;13.424;2024-02-16T03:47:00;13.82;;;8.95;;
39918;SDS011;25589;51.552;13.424;2024-02-16T03:49:25;13.45;;;8.88;;
39918;SDS011;25589;51.552;13.424;2024-02-16T03:51:54;13.27;;;8.18;;
39918;SDS011;25589;51.552;13.424;2024-02-16T03:54:19;13.95;;;9.05;;
39918;SDS011;25589;51.552;13.424;2024-02-16T03:56:45;13.23;;;8.68;;
39918;SDS011;25589;51.552;13.424;2024-02-16T03:59:10;11.70;;;8.43;;
39918;SDS011;25589;51.552;13.424;2024-02-16T04:01:36;13.82;;;8.57;;
39918;SDS011;25589;51.552;13.424;2024-02-16T04:04:02;12.40;;;8.15;;
39918;SDS011;25589;51.552;13.424;2024-02-16T04:06:28;10.85;;;8.20;;
39918;SDS011;25589;51.552;13.424;2024-02-16T04:08:54;16.17;;;9.38;;
39918;SDS011;25589;51.552;13.424;2024-02-16T04:11:21;11.77;;;8.05;;
39918;SDS011;25589;51.552;13.424;2024-02-16T04:13:46;12.75;;;8.25;;
39918;SDS011;25589;51.552;13.424;2024-02-16T04:16:13;10.35;;;8.13;;
39918;SDS011;25589;51.552;13.424;2024-02-16T04:18:38;10.60;;;7.72;;
39918;SDS011;25589;51.552;13.424;2024-02-16T04:21:04;13.45;;;9.13;;
39918;SDS011;25589;51.552;13.424;2024-02-16T04:23:30;12.45;;;8.30;;
39918;SDS011;25589;51.552;13.424;2024-02-16T04:25:55;14.10;;;8.80;;
39918;SDS011;25589;51.552;13.424;2024-02-16T04:28:21;11.50;;;8.02;;
39918;SDS011;25589;51.552;13.424;2024-02-16T04:30:47;13.27;;;8.45;;
39918;SDS011;25589;51.552;13.424;2024-02-16T04:33:12;13.10;;;8.35;;
39918;SDS011;25589;51.552;13.424;2024-02-16T04:35:38;11.32;;;7.82;;
39918;SDS011;25589;51.552;13.424;2024-02-16T04:38:03;12.63;;;9.10;;
39918;SDS011;25589;51.552;13.424;2024-02-16T04:40:31;13.45;;;8.68;;
39918;SDS011;25589;51.552;13.424;2024-02-16T04:43:01;12.65;;;7.90;;
39918;SDS011;25589;51.552;13.424;2024-02-16T04:45:27;13.70;;;8.50;;
39918;SDS011;25589;51.552;13.424;2024-02-16T04:47:55;15.20;;;9.20;;
39918;SDS011;25589;51.552;13.424;2024-02-16T04:50:20;11.88;;;8.40;;
39918;SDS011;25589;51.552;13.424;2024-02-16T04:52:46;13.02;;;8.20;;
39918;SDS011;25589;51.552;13.424;2024-02-16T04:55:12;12.38;;;8.50;;
39918;SDS011;25589;51.552;13.424;2024-02-16T04:57:38;13.63;;;8.88;;
39918;SDS011;25589;51.552;13.424;2024-02-16T05:00:03;15.00;;;9.25;;
39918;SDS011;25589;51.552;13.424;2024-02-16T05:02:29;12.35;;;8.65;;
39918;SDS011;25589;51.552;13.424;2024-02-16T05:04:55;10.88;;;8.07;;
39918;SDS011;25589;51.552;13.424;2024-02-16T05:07:22;13.30;;;8.85;;
39918;SDS011;25589;51.552;13.424;2024-02-16T05:09:47;12.93;;;7.95;;
39918;SDS011;25589;51.552;13.424;2024-02-16T05:12:14;16.55;;;10.38;;
39918;SDS011;25589;51.552;13.424;2024-02-16T05:14:40;15.10;;;8.90;;
39918;SDS011;25589;51.552;13.424;2024-02-16T05:17:05;13.10;;;7.88;;
39918;SDS011;25589;51.552;13.424;2024-02-16T05:19:34;13.68;;;8.88;;
39918;SDS011;25589;51.552;13.424;2024-02-16T05:22:01;14.27;;;8.98;;
39918;SDS011;25589;51.552;13.424;2024-02-16T05:24:27;14.30;;;8.75;;
39918;SDS011;25589;51.552;13.424;2024-02-16T05:26:53;15.40;;;9.63;;
39918;SDS011;25589;51.552;13.424;2024-02-16T05:29:19;15.75;;;9.73;;
39918;SDS011;25589;51.552;13.424;2024-02-16T05:31:45;15.88;;;10.15;;
39918;SDS011;25589;51.552;13.424;2024-02-16T05:34:11;16.77;;;9.05;;
39918;SDS011;25589;51.552;13.424;2024-02-16T05:36:36;14.93;;;9.27;;
39918;SDS011;25589;51.552;13.424;2024-02-16T05:39:02;13.27;;;9.18;;
39918;SDS011;25589;51.552;13.424;2024-02-16T05:41:51;12.88;;;9.07;;
39918;SDS011;25589;51.552;13.424;2024-02-16T05:44:18;13.57;;;9.70;;
39918;SDS011;25589;51.552;13.424;2024-02-16T05:46:44;17.50;;;9.98;;
39918;SDS011;25589;51.552;13.424;2024-02-16T05:49:10;16.00;;;9.77;;
39918;SDS011;25589;51.552;13.424;2024-02-16T05:51:36;17.73;;;10.85;;
39918;SDS011;25589;51.552;13.424;2024-02-16T05:54:04;17.65;;;10.40;;
39918;SDS011;25589;51.552;13.424;2024-02-16T05:56:30;18.95;;;10.65;;
39918;SDS011;25589;51.552;13.424;2024-02-16T05:58:58;18.33;;;10.60;;
39918;SDS011;25589;51.552;13.424;2024-02-16T06:01:29;16.63;;;9.95;;
39918;SDS011;25589;51.552;13.424;2024-02-16T06:03:54;16.83;;;10.32;;
39918;SDS011;25589;51.552;13.424;2024-02-16T06:06:21;17.42;;;10.50;;
39918;SDS011;25589;51.552;13.424;2024-02-16T06:08:46;17.73;;;10.77;;
39918;SDS011;25589;51.552;13.424;2024-02-16T06:11:12;19.10;;;10.75;;
39918;SDS011;25589;51.552;13.424;2024-02-16T06:13:38;17.05;;;10.43;;
39918;SDS011;25589;51.552;13.424;2024-02-16T06:16:07;17.27;;;9.85;;
39918;SDS011;25589;51.552;13.424;2024-02-16T06:18:33;15.68;;;10.27;;
39918;SDS011;25589;51.552;13.424;2024-02-16T06:21:00;15.48;;;9.27;;
39918;SDS011;25589;51.552;13.424;2024-02-16T06:23:25;16.17;;;10.05;;
39918;SDS011;25589;51.552;13.424;2024-02-16T06:25:51;17.27;;;10.80;;
39918;SDS011;25589;51.552;13.424;2024-02-16T06:28:16;17.10;;;11.00;;
39918;SDS011;25589;51.552;13.424;2024-02-16T06:30:42;16.65;;;11.13;;
39918;SDS011;25589;51.552;13.424;2024-02-16T06:33:08;16.17;;;10.38;;
39918;SDS011;25589;51.552;13.424;2024-02-16T06:35:33;17.20;;;10.70;;
39918;SDS011;25589;51.552;13.424;2024-02-16T06:37:59;15.65;;;10.55;;
39918;SDS011;25589;51.552;13.424;2024-02-16T06:40:24;15.85;;;10.00;;
39918;SDS011;25589;51.552;13.424;2024-02-16T06:42:51;18.95;;;10.38;;
39918;SDS011;25589;51.552;13.424;2024-02-16T06:45:17;17.33;;;10.73;;
39918;SDS011;25589;51.552;13.424;2024-02-16T06:47:42;16.02;;;10.60;;
39918;SDS011;25589;51.552;13.424;2024-02-16T06:50:08;16.63;;;11.10;;
39918;SDS011;25589;51.552;13.424;2024-02-16T06:52:34;16.90;;;11.00;;
39918;SDS011;25589;51.552;13.424;2024-02-16T06:55:01;16.75;;;10.50;;
39918;SDS011;25589;51.552;13.424;2024-02-16T06:57:27;16.67;;;11.63;;
39918;SDS011;25589;51.552;13.424;2024-02-16T06:59:52;15.45;;;10.07;;
39918;SDS011;25589;51.552;13.424;2024-02-16T07:02:18;17.65;;;10.90;;
39918;SDS011;25589;51.552;13.424;2024-02-16T07:04:44;17.42;;;11.18;;
39918;SDS011;25589;51.552;13.424;2024-02-16T07:07:10;17.92;;;12.15;;
39918;SDS011;25589;51.552;13.424;2024-02-16T07:09:36;17.95;;;12.38;;
39918;SDS011;25589;51.552;13.424;2024-02-16T07:12:04;17.98;;;12.05;;
39918;SDS011;25589;51.552;13.424;2024-02-16T07:14:31;21.95;;;11.93;;
39918;SDS011;25589;51.552;13.424;2024-02-16T07:16:57;19.00;;;12.13;;
39918;SDS011;25589;51.552;13.424;2024-02-16T07:19:23;18.02;;;10.90;;
39918;SDS011;25589;51.552;13.424;2024-02-16T07:21:49;19.67;;;12.38;;
39918;SDS011;25589;51.552;13.424;2024-02-16T07:24:16;16.75;;;11.70;;
39918;SDS011;25589;51.552;13.424;2024-02-16T07:26:41;22.05;;;13.20;;
39918;SDS011;25589;51.552;13.424;2024-02-16T07:29:07;20.85;;;12.82;;
39918;SDS011;25589;51.552;13.424;2024-02-16T07:31:33;17.20;;;11.70;;
39918;SDS011;25589;51.552;13.424;2024-02-16T07:34:00;17.13;;;11.50;;
39918;SDS011;25589;51.552;13.424;2024-02-16T07:36:26;18.85;;;12.75;;
39918;SDS011;25589;51.552;13.424;2024-02-16T07:38:51;23.60;;;12.57;;
39918;SDS011;25589;51.552;13.424;2024-02-16T07:41:17;19.40;;;12.35;;
39918;SDS011;25589;51.552;13.424;2024-02-16T07:43:42;24.90;;;13.15;;
39918;SDS011;25589;51.552;13.424;2024-02-16T07:46:08;22.75;;;12.68;;
39918;SDS011;25589;51.552;13.424;2024-02-16T07:48:34;18.30;;;12.48;;
39918;SDS011;25589;51.552;13.424;2024-02-16T07:51:00;21.98;;;12.63;;
39918;SDS011;25589;51.552;13.424;2024-02-16T07:53:27;20.48;;;12.15;;
39918;SDS011;25589;51.552;13.424;2024-02-16T07:55:53;19.63;;;12.73;;
39918;SDS011;25589;51.552;13.424;2024-02-16T07:58:19;19.45;;;12.30;;
39918;SDS011;25589;51.552;13.424;2024-02-16T08:00:45;17.77;;;12.18;;
39918;SDS011;25589;51.552;13.424;2024-02-16T08:03:11;18.10;;;11.52;;
39918;SDS011;25589;51.552;13.424;2024-02-16T08:05:36;19.30;;;12.43;;
39918;SDS011;25589;51.552;13.424;2024-02-16T08:08:02;19.05;;;12.55;;
39918;SDS011;25589;51.552;13.424;2024-02-16T08:10:28;22.02;;;11.68;;
39918;SDS011;25589;51.552;13.424;2024-02-16T08:12:54;20.30;;;12.52;;
39918;SDS011;25589;51.552;13.424;2024-02-16T08:15:20;18.70;;;11.82;;
39918;SDS011;25589;51.552;13.424;2024-02-16T08:17:49;17.42;;;12.05;;
39918;SDS011;25589;51.552;13.424;2024-02-16T08:20:16;18.92;;;12.48;;
39918;SDS011;25589;51.552;13.424;2024-02-16T08:22:41;19.83;;;12.45;;
39918;SDS011;25589;51.552;13.424;2024-02-16T08:25:07;19.02;;;11.65;;
39918;SDS011;25589;51.552;13.424;2024-02-16T08:27:33;20.10;;;11.45;;
39918;SDS011;25589;51.552;13.424;2024-02-16T08:29:58;19.77;;;11.50;;
39918;SDS011;25589;51.552;13.424;2024-02-16T08:32:26;16.02;;;10.68;;
39918;SDS011;25589;51.552;13.424;2024-02-16T08:34:53;18.13;;;11.05;;
39918;SDS011;25589;51.552;13.424;2024-02-16T08:37:21;18.75;;;11.07;;
39918;SDS011;25589;51.552;13.424;2024-02-16T08:39:46;16.77;;;11.45;;
39918;SDS011;25589;51.552;13.424;2024-02-16T08:42:12;20.02;;;11.48;;
39918;SDS011;25589;51.552;13.424;2024-02-16T08:44:38;15.27;;;10.80;;
39918;SDS011;25589;51.552;13.424;2024-02-16T08:47:07;15.93;;;10.73;;
39918;SDS011;25589;51.552;13.424;2024-02-16T08:49:33;14.88;;;10.57;;
39918;SDS011;25589;51.552;13.424;2024-02-16T08:52:00;16.00;;;11.45;;
39918;SDS011;25589;51.552;13.424;2024-02-16T08:54:25;19.00;;;10.60;;
39918;SDS011;25589;51.552;13.424;2024-02-16T08:56:53;17.08;;;12.18;;
39918;SDS011;25589;51.552;13.424;2024-02-16T08:59:19;16.02;;;10.52;;
39918;SDS011;25589;51.552;13.424;2024-02-16T09:01:44;16.70;;;10.65;;
39918;SDS011;25589;51.552;13.424;2024-02-16T09:04:10;20.73;;;11.13;;
39918;SDS011;25589;51.552;13.424;2024-02-16T09:06:36;15.15;;;10.70;;
39918;SDS011;25589;51.552;13.424;2024-02-16T09:09:02;17.17;;;10.43;;
39918;SDS011;25589;51.552;13.424;2024-02-16T09:11:28;20.90;;;11.77;;
39918;SDS011;25589;51.552;13.424;2024-02-16T09:13:54;17.10;;;11.55;;
39918;SDS011;25589;51.552;13.424;2024-02-16T09:16:19;16.88;;;11.73;;
39918;SDS011;25589;51.552;13.424;2024-02-16T09:18:45;21.25;;;10.90;;
39918;SDS011;25589;51.552;13.424;2024-02-16T09:21:10;14.98;;;11.13;;
39918;SDS011;25589;51.552;13.424;2024-02-16T09:23:36;16.55;;;10.85;;
39918;SDS011;25589;51.552;13.424;2024-02-16T09:26:02;17.52;;;10.20;;
39918;SDS011;25589;51.552;13.424;2024-02-16T09:28:29;16.17;;;10.90;;
39918;SDS011;25589;51.552;13.424;2024-02-16T09:30:55;16.90;;;10.80;;
39918;SDS011;25589;51.552;13.424;2024-02-16T09:33:21;17.40;;;10.90;;
39918;SDS011;25589;51.552;13.424;2024-02-16T09:35:49;14.90;;;10.25;;
39918;SDS011;25589;51.552;13.424;2024-02-16T09:38:15;16.20;;;10.88;;
39918;SDS011;25589;51.552;13.424;2024-02-16T09:40:41;17.38;;;10.30;;
39918;SDS011;25589;51.552;13.424;2024-02-16T09:43:07;14.13;;;9.85;;
39918;SDS011;25589;51.552;13.424;2024-02-16T09:45:33;15.85;;;10.68;;
39918;SDS011;25589;51.552;13.424;2024-02-16T09:47:58;19.95;;;9.40;;
39918;SDS011;25589;51.552;13.424;2024-02-16T09:50:25;13.45;;;9.73;;
39918;SDS011;25589;51.552;13.424;2024-02-16T09:52:54;15.98;;;9.90;;
39918;SDS011;25589;51.552;13.424;2024-02-16T09:55:21;15.48;;;9.57;;
39918;SDS011;25589;51.552;13.424;2024-02-16T09:57:57;14.05;;;9.45;;
39918;SDS011;25589;51.552;13.424;2024-02-16T10:00:24;13.57;;;9.95;;
39918;SDS011;25589;51.552;13.424;2024-02-16T10:02:49;18.58;;;11.00;;
39918;SDS011;25589;51.552;13.424;2024-02-16T10:05:24;14.40;;;10.05;;
39918;SDS011;25589;51.552;13.424;2024-02-16T10:07:50;16.40;;;9.90;;
39918;SDS011;25589;51.552;13.424;2024-02-16T10:10:22;16.35;;;9.50;;
39918;SDS011;25589;51.552;13.424;2024-02-16T10:12:50;14.82;;;8.95;;
39918;SDS011;25589;51.552;13.424;2024-02-16T10:15:25;13.10;;;9.43;;
39918;SDS011;25589;51.552;13.424;2024-02-16T10:17:59;16.60;;;10.45;;
39918;SDS011;25589;51.552;13.424;2024-02-16T10:20:25;14.80;;;9.52;;
39918;SDS011;25589;51.552;13.424;2024-02-16T10:23:07;12.25;;;9.13;;
39918;SDS011;25589;51.552;13.424;2024-02-16T10:25:34;14.35;;;9.65;;
39918;SDS011;25589;51.552;13.424;2024-02-16T10:28:05;17.33;;;10.75;;
39918;SDS011;25589;51.552;13.424;2024-02-16T10:30:36;14.93;;;9.98;;
39918;SDS011;25589;51.552;13.424;2024-02-16T10:33:04;14.38;;;9.63;;
39918;SDS011;25589;51.552;13.424;2024-02-16T10:35:31;14.02;;;8.98;;
39918;SDS011;25589;51.552;13.424;2024-02-16T10:38:00;13.52;;;8.88;;
39918;SDS011;25589;51.552;13.424;2024-02-16T10:40:29;12.00;;;8.45;;
39918;SDS011;25589;51.552;13.424;2024-02-16T10:42:59;15.88;;;9.27;;
39918;SDS011;25589;51.552;13.424;2024-02-16T10:45:29;14.05;;;8.95;;
39918;SDS011;25589;51.552;13.424;2024-02-16T10:47:57;12.77;;;8.60;;
39918;SDS011;25589;51.552;13.424;2024-02-16T10:50:22;11.10;;;8.60;;
39918;SDS011;25589;51.552;13.424;2024-02-16T10:52:48;14.32;;;9.00;;
39918;SDS011;25589;51.552;13.424;2024-02-16T10:55:15;11.07;;;7.60;;
39918;SDS011;25589;51.552;13.424;2024-02-16T10:57:41;11.05;;;7.65;;
39918;SDS011;25589;51.552;13.424;2024-02-16T11:00:07;11.10;;;7.63;;
39918;SDS011;25589;51.552;13.424;2024-02-16T11:02:58;12.68;;;8.55;;
39918;SDS011;25589;51.552;13.424;2024-02-16T11:05:40;12.32;;;8.30;;
39918;SDS011;25589;51.552;13.424;2024-02-16T11:08:14;12.65;;;7.50;;
39918;SDS011;25589;51.552;13.424;2024-02-16T11:10:41;11.40;;;8.00;;
39918;SDS011;25589;51.552;13.424;2024-02-16T11:13:23;13.15;;;7.70;;
39918;SDS011;25589;51.552;13.424;2024-02-16T11:16:00;13.13;;;8.15;;
39918;SDS011;25589;51.552;13.424;2024-02-16T11:18:31;12.18;;;8.70;;
39918;SDS011;25589;51.552;13.424;2024-02-16T11:21:01;11.18;;;7.70;;
39918;SDS011;25589;51.552;13.424;2024-02-16T11:23:27;11.57;;;8.05;;
39918;SDS011;25589;51.552;13.424;2024-02-16T11:25:54;11.95;;;8.65;;
39918;SDS011;25589;51.552;13.424;2024-02-16T11:28:25;11.80;;;8.43;;
39918;SDS011;25589;51.552;13.424;2024-02-16T11:30:52;13.65;;;8.40;;
39918;SDS011;25589;51.552;13.424;2024-02-16T11:33:17;12.35;;;8.13;;
39918;SDS011;25589;51.552;13.424;2024-02-16T11:35:51;13.05;;;9.43;;
39918;SDS011;25589;51.552;13.424;2024-02-16T11:38:21;11.02;;;8.48;;
39918;SDS011;25589;51.552;13.424;2024-02-16T11:43:42;10.98;;;8.05;;
39918;SDS011;25589;51.552;13.424;2024-02-16T11:46:11;13.07;;;9.13;;
39918;SDS011;25589;51.552;13.424;2024-02-16T11:48:38;12.45;;;8.00;;
39918;SDS011;25589;51.552;13.424;2024-02-16T11:51:04;11.02;;;7.72;;
39918;SDS011;25589;51.552;13.424;2024-02-16T11:53:30;13.68;;;8.88;;
39918;SDS011;25589;51.552;13.424;2024-02-16T11:55:56;14.27;;;9.52;;
39918;SDS011;25589;51.552;13.424;2024-02-16T11:58:22;13.05;;;8.82;;
39918;SDS011;25589;51.552;13.424;2024-02-16T12:00:49;9.77;;;7.47;;
39918;SDS011;25589;51.552;13.424;2024-02-16T12:03:25;11.60;;;8.98;;
39918;SDS011;25589;51.552;13.424;2024-02-16T12:05:53;14.30;;;8.88;;
39918;SDS011;25589;51.552;13.424;2024-02-16T12:08:21;11.13;;;8.40;;
39918;SDS011;25589;51.552;13.424;2024-02-16T12:10:48;11.48;;;8.13;;
39918;SDS011;25589;51.552;13.424;2024-02-16T12:13:17;14.75;;;9.00;;
39918;SDS011;25589;51.552;13.424;2024-02-16T12:15:50;11.77;;;8.85;;
39918;SDS011;25589;51.552;13.424;2024-02-16T12:18:23;13.38;;;8.98;;
39918;SDS011;25589;51.552;13.424;2024-02-16T12:20:59;11.65;;;7.28;;
39918;SDS011;25589;51.552;13.424;2024-02-16T12:23:30;13.32;;;8.68;;
39918;SDS011;25589;51.552;13.424;2024-02-16T12:25:56;11.73;;;8.80;;
39918;SDS011;25589;51.552;13.424;2024-02-16T12:28:23;11.85;;;8.45;;
39918;SDS011;25589;51.552;13.424;2024-02-16T12:30:50;13.30;;;8.15;;
39918;SDS011;25589;51.552;13.424;2024-02-16T12:33:16;12.13;;;8.25;;
39918;SDS011;25589;51.552;13.424;2024-02-16T12:35:42;12.95;;;8.07;;
39918;SDS011;25589;51.552;13.424;2024-02-16T12:38:09;10.52;;;7.75;;
39918;SDS011;25589;51.552;13.424;2024-02-16T12:40:36;10.15;;;7.60;;
39918;SDS011;25589;51.552;13.424;2024-02-16T12:43:02;9.95;;;7.88;;
39918;SDS011;25589;51.552;13.424;2024-02-16T12:45:28;9.98;;;7.90;;
39918;SDS011;25589;51.552;13.424;2024-02-16T12:47:53;10.15;;;7.90;;
39918;SDS011;25589;51.552;13.424;2024-02-16T12:50:19;11.73;;;7.95;;
39918;SDS011;25589;51.552;13.424;2024-02-16T12:52:44;13.50;;;9.10;;
39918;SDS011;25589;51.552;13.424;2024-02-16T12:55:10;11.88;;;8.27;;
39918;SDS011;25589;51.552;13.424;2024-02-16T12:57:36;10.98;;;8.30;;
39918;SDS011;25589;51.552;13.424;2024-02-16T13:00:03;13.73;;;8.38;;
39918;SDS011;25589;51.552;13.424;2024-02-16T13:02:30;10.35;;;7.72;;
39918;SDS011;25589;51.552;13.424;2024-02-16T13:04:56;10.65;;;7.53;;
39918;SDS011;25589;51.552;13.424;2024-02-16T13:07:23;10.77;;;8.10;;
39918;SDS011;25589;51.552;13.424;2024-02-16T13:09:51;11.63;;;7.95;;
39918;SDS011;25589;51.552;13.424;2024-02-16T13:12:17;12.90;;;8.55;;
39918;SDS011;25589;51.552;13.424;2024-02-16T13:14:42;10.95;;;7.95;;
39918;SDS011;25589;51.552;13.424;2024-02-16T13:17:08;11.80;;;8.10;;
39918;SDS011;25589;51.552;13.424;2024-02-16T13:19:34;11.55;;;8.52;;
39918;SDS011;25589;51.552;13.424;2024-02-16T13:22:00;14.30;;;8.10;;
39918;SDS011;25589;51.552;13.424;2024-02-16T13:24:25;10.43;;;7.65;;
39918;SDS011;25589;51.552;13.424;2024-02-16T13:26:51;11.27;;;7.75;;
39918;SDS011;25589;51.552;13.424;2024-02-16T13:29:16;10.93;;;7.55;;
39918;SDS011;25589;51.552;13.424;2024-02-16T13:31:42;11.88;;;8.10;;
39918;SDS011;25589;51.552;13.424;2024-02-16T13:34:08;11.00;;;7.75;;
39918;SDS011;25589;51.552;13.424;2024-02-16T13:36:33;9.73;;;7.05;;
39918;SDS011;25589;51.552;13.424;2024-02-16T13:38:59;11.82;;;8.15;;
39918;SDS011;25589;51.552;13.424;2024-02-16T13:41:25;10.57;;;7.82;;
39918;SDS011;25589;51.552;13.424;2024-02-16T13:43:51;12.60;;;8.73;;
39918;SDS011;25589;51.552;13.424;2024-02-16T13:46:17;10.30;;;8.23;;
39918;SDS011;25589;51.552;13.424;2024-02-16T13:48:42;12.88;;;9.15;;
39918;SDS011;25589;51.552;13.424;2024-02-16T13:51:08;11.50;;;8.55;;
39918;SDS011;25589;51.552;13.424;2024-02-16T13:53:35;10.07;;;8.23;;
39918;SDS011;25589;51.552;13.424;2024-02-16T13:56:01;11.77;;;8.68;;
39918;SDS011;25589;51.552;13.424;2024-02-16T13:58:29;11.07;;;8.32;;
39918;SDS011;25589;51.552;13.424;2024-02-16T14:00:55;13.05;;;8.90;;
39918;SDS011;25589;51.552;13.424;2024-02-16T14:03:21;21.15;;;12.55;;
39918;SDS011;25589;51.552;13.424;2024-02-16T14:05:47;15.00;;;9.50;;
39918;SDS011;25589;51.552;13.424;2024-02-16T14:08:13;13.65;;;9.38;;
39918;SDS011;25589;51.552;13.424;2024-02-16T14:10:40;13.63;;;8.55;;
39918;SDS011;25589;51.552;13.424;2024-02-16T14:13:05;9.82;;;7.70;;
39918;SDS011;25589;51.552;13.424;2024-02-16T14:15:31;10.98;;;8.55;;